Sault Sainte Marie, MI

8:39 AM EDT on May 24, 2015 (GMT -0400)
Mackinac Island | | Change Station
CLOSE
Current Station
Airport
Location: Mackinac Island,
Elevation: 741 ft
Nearby Weather Stations

Elev 741 ft 45.87 °N, 84.64 °W | Updated 4 minutes ago

Clear
Clear
58 °F
Feels Like 58 °F
N
6
Wind Variable Wind from WSW

Today
High -- | Low -- °F
--% Chance of Precip.
Yesterday
High -- | Low -- °F
Precip. -- in
5:54 AM 9:14 PM
Waxing Crescent, 39% visible
Pressure 30.18 in
Visibility 10.0 miles
Clouds Mostly Cloudy 10000 ft
Mostly Cloudy 12000 ft
Dew Point 42 °F
Humidity 54%
Rainfall 0.00 in
Snow Depth Not available.
UV 1 out of 12
Pollen 9.70 out of 12
Air Quality Not available.
Flu Activity Sporadic
METAR KMCD 241235Z AUTO 24005KT 10SM BKN100 BKN120 15/05 A3018 RMK AO2 T01460054

More Conditions Fewer Conditions

Pressure 30.18 in
Visibility 10.0 miles
Clouds Mostly Cloudy 10000 ft
Mostly Cloudy 12000 ft
Dew Point 42 °F
Humidity 54%
Rainfall 0.00 in
Snow Depth Not available.
UV 1 out of 12
Pollen 9.70 out of 12
Air Quality Not available.
Flu Activity Sporadic
METAR KMCD 241235Z AUTO 24005KT 10SM BKN100 BKN120 15/05 A3018 RMK AO2 T01460054

More Conditions Fewer Conditions

Nowcast | as of 8:00 am EDT on May 24, 2015

At 9 am...mostly clear. Temperature 56. Light winds. At 11 am...partly cloudy. Temperature 65. Light winds. At 1 PM...partly cloudy. Temperature 70. Southwest winds 5 mph. At 3 PM...partly cloudy. Temperature 72. Southwest winds 7 mph.

×

10-Day Weather Forecast

Almanac

Astronomy

May. 24, 2015 Rise Set
Actual Time
Civil Twilight
Nautical Twilight
Astronomical Twilight
Moon
Length of Visible Light
Length of Day
Tomorrow will be .
, % of the Moon is Illuminated

Today's Extremes

State Highs State Lows

Community

WunderPhotos

Upload Photos

1,823,722 photos uploaded!

WunderBlogs® & News

Nearby

Air Quality

  Air Quality AQ Index Pollutant
Not available.

Snow Depth

Station Depth Elevation

Earthquake Activity

City Distance Mag. Time & Date
Minimum magnitude displayed is 2.5.

Coastal Water Temperatures

Place Temperature

Stations

Nearby Weather Stations

Station Location Temp. Windchill Dew Point Humidity Wind Precip. Elev Updated Type